sensor_id;sensor_type;location;lat;lon;timestamp;temperature;humidity
3406;DHT22;10008;48.682;9.016;2024-01-27T00:00:26;2.30;99.90
3406;DHT22;10008;48.682;9.016;2024-01-27T00:02:52;2.20;99.90
3406;DHT22;10008;48.682;9.016;2024-01-27T00:05:17;2.10;99.90
3406;DHT22;10008;48.682;9.016;2024-01-27T00:07:43;2.00;99.90
3406;DHT22;10008;48.682;9.016;2024-01-27T00:10:09;2.10;99.90
3406;DHT22;10008;48.682;9.016;2024-01-27T00:12:35;2.00;99.90
3406;DHT22;10008;48.682;9.016;2024-01-27T00:15:01;1.90;99.90
3406;DHT22;10008;48.682;9.016;2024-01-27T00:17:27;2.10;99.90
3406;DHT22;10008;48.682;9.016;2024-01-27T00:19:54;2.10;99.90
3406;DHT22;10008;48.682;9.016;2024-01-27T00:22:20;2.10;99.90
3406;DHT22;10008;48.682;9.016;2024-01-27T00:24:46;2.10;99.90
3406;DHT22;10008;48.682;9.016;2024-01-27T00:27:12;2.20;99.90
3406;DHT22;10008;48.682;9.016;2024-01-27T00:29:38;2.20;99.90
3406;DHT22;10008;48.682;9.016;2024-01-27T00:32:03;2.00;99.90
3406;DHT22;10008;48.682;9.016;2024-01-27T00:34:29;1.80;99.90
3406;DHT22;10008;48.682;9.016;2024-01-27T00:36:55;1.80;99.90
3406;DHT22;10008;48.682;9.016;2024-01-27T00:39:20;1.80;99.90
3406;DHT22;10008;48.682;9.016;2024-01-27T00:41:46;1.80;99.90
3406;DHT22;10008;48.682;9.016;2024-01-27T00:44:12;1.80;99.90
3406;DHT22;10008;48.682;9.016;2024-01-27T00:46:38;1.80;99.90
3406;DHT22;10008;48.682;9.016;2024-01-27T00:49:03;1.90;99.90
3406;DHT22;10008;48.682;9.016;2024-01-27T00:51:29;2.00;99.90
3406;DHT22;10008;48.682;9.016;2024-01-27T00:53:55;1.90;99.90
3406;DHT22;10008;48.682;9.016;2024-01-27T00:56:21;1.80;99.90
3406;DHT22;10008;48.682;9.016;2024-01-27T00:58:46;1.60;99.90
3406;DHT22;10008;48.682;9.016;2024-01-27T01:01:12;1.50;99.90
3406;DHT22;10008;48.682;9.016;2024-01-27T01:03:38;1.40;99.90
3406;DHT22;10008;48.682;9.016;2024-01-27T01:06:03;1.80;99.90
3406;DHT22;10008;48.682;9.016;2024-01-27T01:08:30;1.40;99.90
3406;DHT22;10008;48.682;9.016;2024-01-27T01:10:56;1.40;99.90
3406;DHT22;10008;48.682;9.016;2024-01-27T01:13:22;1.50;99.90
3406;DHT22;10008;48.682;9.016;2024-01-27T01:15:48;1.60;99.90
3406;DHT22;10008;48.682;9.016;2024-01-27T01:18:13;1.40;99.90
3406;DHT22;10008;48.682;9.016;2024-01-27T01:20:39;1.30;99.90
3406;DHT22;10008;48.682;9.016;2024-01-27T01:23:05;1.30;99.90
3406;DHT22;10008;48.682;9.016;2024-01-27T01:25:30;1.30;99.90
3406;DHT22;10008;48.682;9.016;2024-01-27T01:27:56;1.30;99.90
3406;DHT22;10008;48.682;9.016;2024-01-27T01:30:22;1.30;99.90
3406;DHT22;10008;48.682;9.016;2024-01-27T01:32:48;1.20;99.90
3406;DHT22;10008;48.682;9.016;2024-01-27T01:35:14;1.20;99.90
3406;DHT22;10008;48.682;9.016;2024-01-27T01:37:39;1.10;99.90
3406;DHT22;10008;48.682;9.016;2024-01-27T01:40:06;1.10;99.90
3406;DHT22;10008;48.682;9.016;2024-01-27T01:42:32;1.00;99.90
3406;DHT22;10008;48.682;9.016;2024-01-27T01:44:58;1.00;99.90
3406;DHT22;10008;48.682;9.016;2024-01-27T01:47:24;1.00;99.90
3406;DHT22;10008;48.682;9.016;2024-01-27T01:49:50;1.00;99.90
3406;DHT22;10008;48.682;9.016;2024-01-27T01:52:17;1.00;99.90
3406;DHT22;10008;48.682;9.016;2024-01-27T01:54:48;1.00;99.90
3406;DHT22;10008;48.682;9.016;2024-01-27T01:57:15;1.00;99.90
3406;DHT22;10008;48.682;9.016;2024-01-27T01:59:40;0.90;99.90
3406;DHT22;10008;48.682;9.016;2024-01-27T02:02:08;0.90;99.90
3406;DHT22;10008;48.682;9.016;2024-01-27T02:04:43;1.00;99.90
3406;DHT22;10008;48.682;9.016;2024-01-27T02:07:09;1.10;99.90
3406;DHT22;10008;48.682;9.016;2024-01-27T02:09:35;1.20;99.90
3406;DHT22;10008;48.682;9.016;2024-01-27T02:12:01;1.10;99.90
3406;DHT22;10008;48.682;9.016;2024-01-27T02:14:27;1.10;99.90
3406;DHT22;10008;48.682;9.016;2024-01-27T02:16:54;1.00;99.90
3406;DHT22;10008;48.682;9.016;2024-01-27T02:19:20;1.00;99.90
3406;DHT22;10008;48.682;9.016;2024-01-27T02:21:45;0.90;99.90
3406;DHT22;10008;48.682;9.016;2024-01-27T02:24:11;0.80;99.90
3406;DHT22;10008;48.682;9.016;2024-01-27T02:26:37;0.80;99.90
3406;DHT22;10008;48.682;9.016;2024-01-27T02:29:03;0.80;99.90
3406;DHT22;10008;48.682;9.016;2024-01-27T02:31:29;0.80;99.90
3406;DHT22;10008;48.682;9.016;2024-01-27T02:33:55;0.70;99.90
3406;DHT22;10008;48.682;9.016;2024-01-27T02:36:20;0.80;99.90
3406;DHT22;10008;48.682;9.016;2024-01-27T02:38:46;0.70;99.90
3406;DHT22;10008;48.682;9.016;2024-01-27T02:41:12;0.70;99.90
3406;DHT22;10008;48.682;9.016;2024-01-27T02:43:38;0.50;99.90
3406;DHT22;10008;48.682;9.016;2024-01-27T02:46:10;0.40;99.90
3406;DHT22;10008;48.682;9.016;2024-01-27T02:48:39;0.50;99.90
3406;DHT22;10008;48.682;9.016;2024-01-27T02:51:05;0.50;99.90
3406;DHT22;10008;48.682;9.016;2024-01-27T02:53:31;0.50;99.90
3406;DHT22;10008;48.682;9.016;2024-01-27T02:55:56;0.60;99.90
3406;DHT22;10008;48.682;9.016;2024-01-27T02:58:22;0.70;99.90
3406;DHT22;10008;48.682;9.016;2024-01-27T03:00:48;0.70;99.90
3406;DHT22;10008;48.682;9.016;2024-01-27T03:03:13;0.60;99.90
3406;DHT22;10008;48.682;9.016;2024-01-27T03:05:40;0.60;99.90
3406;DHT22;10008;48.682;9.016;2024-01-27T03:08:06;0.60;99.90
3406;DHT22;10008;48.682;9.016;2024-01-27T03:10:32;0.50;99.90
3406;DHT22;10008;48.682;9.016;2024-01-27T03:12:58;0.30;99.90
3406;DHT22;10008;48.682;9.016;2024-01-27T03:15:24;0.40;99.90
3406;DHT22;10008;48.682;9.016;2024-01-27T03:17:49;0.40;99.90
3406;DHT22;10008;48.682;9.016;2024-01-27T03:20:15;0.40;99.90
3406;DHT22;10008;48.682;9.016;2024-01-27T03:22:41;0.30;99.90
3406;DHT22;10008;48.682;9.016;2024-01-27T03:25:08;0.30;99.90
3406;DHT22;10008;48.682;9.016;2024-01-27T03:27:34;0.30;99.90
3406;DHT22;10008;48.682;9.016;2024-01-27T03:30:01;0.30;99.90
3406;DHT22;10008;48.682;9.016;2024-01-27T03:32:27;0.40;99.90
3406;DHT22;10008;48.682;9.016;2024-01-27T03:34:53;0.40;99.90
3406;DHT22;10008;48.682;9.016;2024-01-27T03:37:21;0.50;99.90
3406;DHT22;10008;48.682;9.016;2024-01-27T03:39:47;0.60;99.90
3406;DHT22;10008;48.682;9.016;2024-01-27T03:42:13;0.70;99.90
3406;DHT22;10008;48.682;9.016;2024-01-27T03:44:39;0.70;99.90
3406;DHT22;10008;48.682;9.016;2024-01-27T03:47:05;0.70;99.90
3406;DHT22;10008;48.682;9.016;2024-01-27T03:49:31;0.60;99.90
3406;DHT22;10008;48.682;9.016;2024-01-27T03:51:56;0.90;99.90
3406;DHT22;10008;48.682;9.016;2024-01-27T03:54:22;0.60;99.90
3406;DHT22;10008;48.682;9.016;2024-01-27T03:56:48;0.60;99.90
3406;DHT22;10008;48.682;9.016;2024-01-27T03:59:13;0.60;99.90
3406;DHT22;10008;48.682;9.016;2024-01-27T04:01:39;0.60;99.90
3406;DHT22;10008;48.682;9.016;2024-01-27T04:04:05;0.70;99.90
3406;DHT22;10008;48.682;9.016;2024-01-27T04:06:39;0.70;99.90
3406;DHT22;10008;48.682;9.016;2024-01-27T04:09:05;0.60;99.90
3406;DHT22;10008;48.682;9.016;2024-01-27T04:11:34;0.50;99.90
3406;DHT22;10008;48.682;9.016;2024-01-27T04:14:00;0.40;99.90
3406;DHT22;10008;48.682;9.016;2024-01-27T04:16:27;0.30;99.90
3406;DHT22;10008;48.682;9.016;2024-01-27T04:18:53;0.20;99.90
3406;DHT22;10008;48.682;9.016;2024-01-27T04:21:18;0.10;99.90
3406;DHT22;10008;48.682;9.016;2024-01-27T04:23:44;0.10;99.90
3406;DHT22;10008;48.682;9.016;2024-01-27T04:26:10;0.10;99.90
3406;DHT22;10008;48.682;9.016;2024-01-27T04:28:36;0.10;99.90
3406;DHT22;10008;48.682;9.016;2024-01-27T04:31:02;0.10;99.90
3406;DHT22;10008;48.682;9.016;2024-01-27T04:33:28;0.10;99.90
3406;DHT22;10008;48.682;9.016;2024-01-27T04:35:54;0.20;99.90
3406;DHT22;10008;48.682;9.016;2024-01-27T04:38:20;0.30;99.90
3406;DHT22;10008;48.682;9.016;2024-01-27T04:40:45;0.30;99.90
3406;DHT22;10008;48.682;9.016;2024-01-27T04:43:15;0.10;99.90
3406;DHT22;10008;48.682;9.016;2024-01-27T04:45:41;0.10;99.90
3406;DHT22;10008;48.682;9.016;2024-01-27T04:48:07;0.00;99.90
3406;DHT22;10008;48.682;9.016;2024-01-27T04:50:34;-0.10;99.90
3406;DHT22;10008;48.682;9.016;2024-01-27T04:52:59;-0.20;99.90
3406;DHT22;10008;48.682;9.016;2024-01-27T04:55:25;-0.10;99.90
3406;DHT22;10008;48.682;9.016;2024-01-27T04:57:51;-0.10;99.90
3406;DHT22;10008;48.682;9.016;2024-01-27T05:00:17;-0.20;99.90
3406;DHT22;10008;48.682;9.016;2024-01-27T05:02:42;-0.20;99.90
3406;DHT22;10008;48.682;9.016;2024-01-27T05:05:09;-0.20;99.90
3406;DHT22;10008;48.682;9.016;2024-01-27T05:07:34;-0.10;99.90
3406;DHT22;10008;48.682;9.016;2024-01-27T05:10:00;0.00;99.90
3406;DHT22;10008;48.682;9.016;2024-01-27T05:12:26;-0.10;99.90
3406;DHT22;10008;48.682;9.016;2024-01-27T05:14:52;-0.10;99.90
3406;DHT22;10008;48.682;9.016;2024-01-27T05:17:18;-0.10;99.90
3406;DHT22;10008;48.682;9.016;2024-01-27T05:19:43;0.00;99.90
3406;DHT22;10008;48.682;9.016;2024-01-27T05:22:09;0.20;99.90
3406;DHT22;10008;48.682;9.016;2024-01-27T05:24:35;0.10;99.90
3406;DHT22;10008;48.682;9.016;2024-01-27T05:27:01;0.00;99.90
3406;DHT22;10008;48.682;9.016;2024-01-27T05:29:28;-0.10;99.90
3406;DHT22;10008;48.682;9.016;2024-01-27T05:31:54;-0.10;99.90
3406;DHT22;10008;48.682;9.016;2024-01-27T05:34:19;-0.10;99.90
3406;DHT22;10008;48.682;9.016;2024-01-27T05:36:49;-0.20;99.90
3406;DHT22;10008;48.682;9.016;2024-01-27T05:39:15;-0.20;99.90
3406;DHT22;10008;48.682;9.016;2024-01-27T05:41:40;-0.10;99.90
3406;DHT22;10008;48.682;9.016;2024-01-27T05:44:06;-0.10;99.90
3406;DHT22;10008;48.682;9.016;2024-01-27T05:46:32;-0.10;99.90
3406;DHT22;10008;48.682;9.016;2024-01-27T05:48:57;-0.10;99.90
3406;DHT22;10008;48.682;9.016;2024-01-27T05:51:28;-0.30;99.90
3406;DHT22;10008;48.682;9.016;2024-01-27T05:53:54;-0.30;99.90
3406;DHT22;10008;48.682;9.016;2024-01-27T05:56:19;-0.30;99.90
3406;DHT22;10008;48.682;9.016;2024-01-27T05:58:49;-0.30;99.90
3406;DHT22;10008;48.682;9.016;2024-01-27T06:01:14;-0.40;99.90
3406;DHT22;10008;48.682;9.016;2024-01-27T06:03:43;-0.40;99.90
3406;DHT22;10008;48.682;9.016;2024-01-27T06:06:10;-0.40;99.90
3406;DHT22;10008;48.682;9.016;2024-01-27T06:08:36;-0.50;99.90
3406;DHT22;10008;48.682;9.016;2024-01-27T06:11:02;-0.60;99.90
3406;DHT22;10008;48.682;9.016;2024-01-27T06:13:31;-0.60;99.90
3406;DHT22;10008;48.682;9.016;2024-01-27T06:15:58;-0.30;99.90
3406;DHT22;10008;48.682;9.016;2024-01-27T06:18:24;-0.40;99.90
3406;DHT22;10008;48.682;9.016;2024-01-27T06:20:50;-0.30;99.90
3406;DHT22;10008;48.682;9.016;2024-01-27T06:23:16;-0.20;99.90
3406;DHT22;10008;48.682;9.016;2024-01-27T06:25:43;-0.20;99.90
3406;DHT22;10008;48.682;9.016;2024-01-27T06:28:08;-0.40;99.90
3406;DHT22;10008;48.682;9.016;2024-01-27T06:30:34;-0.40;99.90
3406;DHT22;10008;48.682;9.016;2024-01-27T06:33:00;-0.40;99.90
3406;DHT22;10008;48.682;9.016;2024-01-27T06:35:25;-0.40;99.90
3406;DHT22;10008;48.682;9.016;2024-01-27T06:37:51;-0.40;99.90
3406;DHT22;10008;48.682;9.016;2024-01-27T06:40:17;-0.50;99.90
3406;DHT22;10008;48.682;9.016;2024-01-27T06:42:44;-0.50;99.90
3406;DHT22;10008;48.682;9.016;2024-01-27T06:45:09;-0.50;99.90
3406;DHT22;10008;48.682;9.016;2024-01-27T06:47:35;-0.40;99.90
3406;DHT22;10008;48.682;9.016;2024-01-27T06:50:02;-0.30;99.90
3406;DHT22;10008;48.682;9.016;2024-01-27T06:52:28;-0.30;99.90
3406;DHT22;10008;48.682;9.016;2024-01-27T06:54:54;-0.40;99.90
3406;DHT22;10008;48.682;9.016;2024-01-27T06:57:21;-0.40;99.90
3406;DHT22;10008;48.682;9.016;2024-01-27T06:59:51;-0.30;99.90
3406;DHT22;10008;48.682;9.016;2024-01-27T07:02:25;-0.30;99.90
3406;DHT22;10008;48.682;9.016;2024-01-27T07:04:54;-0.30;99.90
3406;DHT22;10008;48.682;9.016;2024-01-27T07:07:24;-0.30;99.90
3406;DHT22;10008;48.682;9.016;2024-01-27T07:09:51;-0.50;99.90
3406;DHT22;10008;48.682;9.016;2024-01-27T07:12:16;-0.70;99.90
3406;DHT22;10008;48.682;9.016;2024-01-27T07:14:42;-0.70;99.90
3406;DHT22;10008;48.682;9.016;2024-01-27T07:17:08;-0.70;99.90
3406;DHT22;10008;48.682;9.016;2024-01-27T07:19:33;-0.60;99.90
3406;DHT22;10008;48.682;9.016;2024-01-27T07:22:00;-0.60;99.90
3406;DHT22;10008;48.682;9.016;2024-01-27T07:24:26;-0.60;99.90
3406;DHT22;10008;48.682;9.016;2024-01-27T07:26:52;-0.60;99.90
3406;DHT22;10008;48.682;9.016;2024-01-27T07:29:18;-0.50;99.90
3406;DHT22;10008;48.682;9.016;2024-01-27T07:31:44;-0.50;99.90
3406;DHT22;10008;48.682;9.016;2024-01-27T07:34:09;-0.50;99.90
3406;DHT22;10008;48.682;9.016;2024-01-27T07:36:35;-0.40;99.90
3406;DHT22;10008;48.682;9.016;2024-01-27T07:39:01;-0.30;99.90
3406;DHT22;10008;48.682;9.016;2024-01-27T07:41:27;-0.20;99.90
3406;DHT22;10008;48.682;9.016;2024-01-27T07:43:54;-0.20;99.90
3406;DHT22;10008;48.682;9.016;2024-01-27T07:46:20;-0.10;99.90
3406;DHT22;10008;48.682;9.016;2024-01-27T07:48:48;0.00;99.90
3406;DHT22;10008;48.682;9.016;2024-01-27T07:51:15;-0.10;99.90
3406;DHT22;10008;48.682;9.016;2024-01-27T07:53:41;-0.10;99.90
3406;DHT22;10008;48.682;9.016;2024-01-27T07:56:07;-0.10;99.90
3406;DHT22;10008;48.682;9.016;2024-01-27T07:58:33;0.00;99.90
3406;DHT22;10008;48.682;9.016;2024-01-27T08:00:59;-0.20;99.90
3406;DHT22;10008;48.682;9.016;2024-01-27T08:03:25;-0.20;99.90
3406;DHT22;10008;48.682;9.016;2024-01-27T08:05:51;-0.20;99.90
3406;DHT22;10008;48.682;9.016;2024-01-27T08:08:17;-0.20;99.90
3406;DHT22;10008;48.682;9.016;2024-01-27T08:10:44;0.10;99.90
3406;DHT22;10008;48.682;9.016;2024-01-27T08:13:10;0.20;99.90
3406;DHT22;10008;48.682;9.016;2024-01-27T08:15:36;0.30;99.90
3406;DHT22;10008;48.682;9.016;2024-01-27T08:18:02;0.40;99.90
3406;DHT22;10008;48.682;9.016;2024-01-27T08:20:28;0.50;99.90
3406;DHT22;10008;48.682;9.016;2024-01-27T08:22:53;0.50;99.90
3406;DHT22;10008;48.682;9.016;2024-01-27T08:25:19;0.50;99.90
3406;DHT22;10008;48.682;9.016;2024-01-27T08:27:45;0.50;99.90
3406;DHT22;10008;48.682;9.016;2024-01-27T08:30:11;0.30;99.90
3406;DHT22;10008;48.682;9.016;2024-01-27T08:32:37;0.30;99.90
3406;DHT22;10008;48.682;9.016;2024-01-27T08:35:03;0.30;99.90
3406;DHT22;10008;48.682;9.016;2024-01-27T08:37:29;0.30;99.90
3406;DHT22;10008;48.682;9.016;2024-01-27T08:39:55;0.30;99.90
3406;DHT22;10008;48.682;9.016;2024-01-27T08:42:21;0.40;99.90
3406;DHT22;10008;48.682;9.016;2024-01-27T08:44:47;0.50;99.90
3406;DHT22;10008;48.682;9.016;2024-01-27T08:47:12;0.50;99.90
3406;DHT22;10008;48.682;9.016;2024-01-27T08:49:38;0.60;99.90
3406;DHT22;10008;48.682;9.016;2024-01-27T08:52:04;0.70;99.90
3406;DHT22;10008;48.682;9.016;2024-01-27T08:54:30;1.00;99.90
3406;DHT22;10008;48.682;9.016;2024-01-27T08:56:56;1.10;99.90
3406;DHT22;10008;48.682;9.016;2024-01-27T08:59:21;1.40;99.90
3406;DHT22;10008;48.682;9.016;2024-01-27T09:01:47;1.10;99.90
3406;DHT22;10008;48.682;9.016;2024-01-27T09:04:13;1.20;99.90
3406;DHT22;10008;48.682;9.016;2024-01-27T09:06:39;1.30;99.90
3406;DHT22;10008;48.682;9.016;2024-01-27T09:09:05;1.70;99.90
3406;DHT22;10008;48.682;9.016;2024-01-27T09:11:30;1.60;99.90
3406;DHT22;10008;48.682;9.016;2024-01-27T09:13:57;1.70;99.90
3406;DHT22;10008;48.682;9.016;2024-01-27T09:16:23;1.80;99.90
3406;DHT22;10008;48.682;9.016;2024-01-27T09:18:49;1.80;99.90
3406;DHT22;10008;48.682;9.016;2024-01-27T09:21:18;1.80;99.90
3406;DHT22;10008;48.682;9.016;2024-01-27T09:23:54;2.20;99.90
3406;DHT22;10008;48.682;9.016;2024-01-27T09:26:20;2.20;99.90
3406;DHT22;10008;48.682;9.016;2024-01-27T09:28:45;2.20;99.90
3406;DHT22;10008;48.682;9.016;2024-01-27T09:31:21;2.30;99.90
3406;DHT22;10008;48.682;9.016;2024-01-27T09:33:52;2.30;99.90
3406;DHT22;10008;48.682;9.016;2024-01-27T09:36:19;2.20;99.90
3406;DHT22;10008;48.682;9.016;2024-01-27T09:38:45;2.20;99.90
3406;DHT22;10008;48.682;9.016;2024-01-27T09:41:13;2.70;99.90
3406;DHT22;10008;48.682;9.016;2024-01-27T09:43:42;2.70;99.90
3406;DHT22;10008;48.682;9.016;2024-01-27T09:46:19;2.90;99.90
3406;DHT22;10008;48.682;9.016;2024-01-27T09:48:45;3.00;99.90
3406;DHT22;10008;48.682;9.016;2024-01-27T09:51:11;3.00;99.90
3406;DHT22;10008;48.682;9.016;2024-01-27T09:53:37;3.10;99.90
3406;DHT22;10008;48.682;9.016;2024-01-27T09:56:03;3.10;99.90
3406;DHT22;10008;48.682;9.016;2024-01-27T09:58:30;3.20;99.90
3406;DHT22;10008;48.682;9.016;2024-01-27T10:00:57;3.30;99.90
3406;DHT22;10008;48.682;9.016;2024-01-27T10:03:27;3.30;99.90
3406;DHT22;10008;48.682;9.016;2024-01-27T10:05:55;3.50;99.90
3406;DHT22;10008;48.682;9.016;2024-01-27T10:08:21;3.60;99.90
3406;DHT22;10008;48.682;9.016;2024-01-27T10:10:53;3.80;99.90
3406;DHT22;10008;48.682;9.016;2024-01-27T10:13:19;3.90;99.90
3406;DHT22;10008;48.682;9.016;2024-01-27T10:16:02;3.90;99.90
3406;DHT22;10008;48.682;9.016;2024-01-27T10:18:29;4.00;99.90
3406;DHT22;10008;48.682;9.016;2024-01-27T10:20:55;4.10;99.90
3406;DHT22;10008;48.682;9.016;2024-01-27T10:23:21;4.30;99.90
3406;DHT22;10008;48.682;9.016;2024-01-27T10:25:47;4.30;99.90
3406;DHT22;10008;48.682;9.016;2024-01-27T10:28:13;4.40;99.90
3406;DHT22;10008;48.682;9.016;2024-01-27T10:30:38;4.40;99.90
3406;DHT22;10008;48.682;9.016;2024-01-27T10:33:04;4.50;99.90
3406;DHT22;10008;48.682;9.016;2024-01-27T10:35:33;4.70;99.90
3406;DHT22;10008;48.682;9.016;2024-01-27T10:37:58;4.70;99.90
3406;DHT22;10008;48.682;9.016;2024-01-27T10:40:24;4.80;99.90
3406;DHT22;10008;48.682;9.016;2024-01-27T10:43:04;4.80;99.90
3406;DHT22;10008;48.682;9.016;2024-01-27T10:45:40;4.80;99.90
3406;DHT22;10008;48.682;9.016;2024-01-27T10:48:08;4.60;99.90
3406;DHT22;10008;48.682;9.016;2024-01-27T10:50:37;4.50;99.90
3406;DHT22;10008;48.682;9.016;2024-01-27T10:53:05;4.70;99.90
3406;DHT22;10008;48.682;9.016;2024-01-27T10:55:34;4.90;99.90
3406;DHT22;10008;48.682;9.016;2024-01-27T10:58:03;4.80;99.90
3406;DHT22;10008;48.682;9.016;2024-01-27T11:00:30;5.10;99.90
3406;DHT22;10008;48.682;9.016;2024-01-27T11:02:59;5.40;99.90
3406;DHT22;10008;48.682;9.016;2024-01-27T11:05:27;5.50;99.90
3406;DHT22;10008;48.682;9.016;2024-01-27T11:07:55;5.70;99.90
3406;DHT22;10008;48.682;9.016;2024-01-27T11:10:22;6.00;99.90
3406;DHT22;10008;48.682;9.016;2024-01-27T11:12:50;6.30;99.90
3406;DHT22;10008;48.682;9.016;2024-01-27T11:15:18;6.90;99.90
3406;DHT22;10008;48.682;9.016;2024-01-27T11:17:43;7.30;99.90
3406;DHT22;10008;48.682;9.016;2024-01-27T11:20:11;8.00;99.90
3406;DHT22;10008;48.682;9.016;2024-01-27T11:22:37;8.00;99.90
3406;DHT22;10008;48.682;9.016;2024-01-27T11:25:06;8.00;99.90
3406;DHT22;10008;48.682;9.016;2024-01-27T11:27:32;7.70;99.90
3406;DHT22;10008;48.682;9.016;2024-01-27T11:29:58;7.40;99.90
3406;DHT22;10008;48.682;9.016;2024-01-27T11:32:25;7.90;99.90
3406;DHT22;10008;48.682;9.016;2024-01-27T11:34:52;9.30;99.90
3406;DHT22;10008;48.682;9.016;2024-01-27T11:37:17;10.40;99.90
3406;DHT22;10008;48.682;9.016;2024-01-27T11:39:49;11.20;98.10
3406;DHT22;10008;48.682;9.016;2024-01-27T11:42:16;11.50;96.50
3406;DHT22;10008;48.682;9.016;2024-01-27T11:44:43;12.20;93.60
3406;DHT22;10008;48.682;9.016;2024-01-27T11:47:18;13.00;93.20
3406;DHT22;10008;48.682;9.016;2024-01-27T11:49:53;13.90;91.90
3406;DHT22;10008;48.682;9.016;2024-01-27T11:52:20;14.20;87.50
3406;DHT22;10008;48.682;9.016;2024-01-27T11:54:46;14.30;88.10
3406;DHT22;10008;48.682;9.016;2024-01-27T11:57:12;14.70;85.50
3406;DHT22;10008;48.682;9.016;2024-01-27T11:59:37;15.90;82.70
3406;DHT22;10008;48.682;9.016;2024-01-27T12:02:03;16.40;78.80
3406;DHT22;10008;48.682;9.016;2024-01-27T12:04:29;15.80;78.00
3406;DHT22;10008;48.682;9.016;2024-01-27T12:06:55;15.10;80.40
3406;DHT22;10008;48.682;9.016;2024-01-27T12:09:21;14.70;76.30
3406;DHT22;10008;48.682;9.016;2024-01-27T12:11:48;14.80;79.10
3406;DHT22;10008;48.682;9.016;2024-01-27T12:14:13;14.60;80.30
3406;DHT22;10008;48.682;9.016;2024-01-27T12:16:40;15.70;77.20
3406;DHT22;10008;48.682;9.016;2024-01-27T12:19:09;16.10;73.80
3406;DHT22;10008;48.682;9.016;2024-01-27T12:21:35;16.10;73.20
3406;DHT22;10008;48.682;9.016;2024-01-27T12:24:01;15.00;74.00
3406;DHT22;10008;48.682;9.016;2024-01-27T12:26:29;14.70;77.20
3406;DHT22;10008;48.682;9.016;2024-01-27T12:28:55;14.80;76.70
3406;DHT22;10008;48.682;9.016;2024-01-27T12:31:22;15.10;71.40
3406;DHT22;10008;48.682;9.016;2024-01-27T12:33:53;15.00;70.80
3406;DHT22;10008;48.682;9.016;2024-01-27T12:36:20;15.30;72.00
3406;DHT22;10008;48.682;9.016;2024-01-27T12:39:08;15.80;71.50
3406;DHT22;10008;48.682;9.016;2024-01-27T12:41:33;15.80;70.40
3406;DHT22;10008;48.682;9.016;2024-01-27T12:43:59;16.40;72.20
3406;DHT22;10008;48.682;9.016;2024-01-27T12:46:25;16.40;71.40
3406;DHT22;10008;48.682;9.016;2024-01-27T12:48:51;16.40;69.00
3406;DHT22;10008;48.682;9.016;2024-01-27T12:51:17;16.30;70.60
3406;DHT22;10008;48.682;9.016;2024-01-27T12:53:43;15.60;70.20
3406;DHT22;10008;48.682;9.016;2024-01-27T12:56:10;15.10;71.80
3406;DHT22;10008;48.682;9.016;2024-01-27T12:58:37;15.20;73.30
3406;DHT22;10008;48.682;9.016;2024-01-27T13:01:03;15.60;71.80
3406;DHT22;10008;48.682;9.016;2024-01-27T13:03:29;15.40;69.50
3406;DHT22;10008;48.682;9.016;2024-01-27T13:05:56;15.20;71.50
3406;DHT22;10008;48.682;9.016;2024-01-27T13:08:22;15.30;75.10
3406;DHT22;10008;48.682;9.016;2024-01-27T13:10:49;15.40;70.70
3406;DHT22;10008;48.682;9.016;2024-01-27T13:13:14;15.30;69.00
3406;DHT22;10008;48.682;9.016;2024-01-27T13:15:40;15.20;68.20
3406;DHT22;10008;48.682;9.016;2024-01-27T13:18:06;15.10;68.20
3406;DHT22;10008;48.682;9.016;2024-01-27T13:20:32;15.00;70.00
3406;DHT22;10008;48.682;9.016;2024-01-27T13:23:00;15.40;66.90
3406;DHT22;10008;48.682;9.016;2024-01-27T13:25:26;15.20;64.50
3406;DHT22;10008;48.682;9.016;2024-01-27T13:27:52;14.90;65.10
3406;DHT22;10008;48.682;9.016;2024-01-27T13:30:18;15.50;68.10
3406;DHT22;10008;48.682;9.016;2024-01-27T13:32:44;15.90;63.50
3406;DHT22;10008;48.682;9.016;2024-01-27T13:35:10;15.00;58.90
3406;DHT22;10008;48.682;9.016;2024-01-27T13:37:36;14.40;59.30
3406;DHT22;10008;48.682;9.016;2024-01-27T13:40:05;14.90;59.80
3406;DHT22;10008;48.682;9.016;2024-01-27T13:42:33;14.90;59.90
3406;DHT22;10008;48.682;9.016;2024-01-27T13:44:59;14.80;61.30
3406;DHT22;10008;48.682;9.016;2024-01-27T13:47:25;14.70;60.50
3406;DHT22;10008;48.682;9.016;2024-01-27T13:49:51;14.80;58.50
3406;DHT22;10008;48.682;9.016;2024-01-27T13:52:17;14.70;58.70
3406;DHT22;10008;48.682;9.016;2024-01-27T13:54:43;14.20;59.10
3406;DHT22;10008;48.682;9.016;2024-01-27T13:57:09;14.70;61.80
3406;DHT22;10008;48.682;9.016;2024-01-27T13:59:36;15.10;58.60
3406;DHT22;10008;48.682;9.016;2024-01-27T14:02:02;14.90;56.90
3406;DHT22;10008;48.682;9.016;2024-01-27T14:04:28;14.70;56.90
3406;DHT22;10008;48.682;9.016;2024-01-27T14:06:54;14.60;57.40
3406;DHT22;10008;48.682;9.016;2024-01-27T14:09:23;14.70;57.50
3406;DHT22;10008;48.682;9.016;2024-01-27T14:11:49;14.70;57.00
3406;DHT22;10008;48.682;9.016;2024-01-27T14:14:15;14.70;56.80
3406;DHT22;10008;48.682;9.016;2024-01-27T14:16:44;14.50;56.40
3406;DHT22;10008;48.682;9.016;2024-01-27T14:19:10;14.50;56.20
3406;DHT22;10008;48.682;9.016;2024-01-27T14:21:36;14.70;56.90
3406;DHT22;10008;48.682;9.016;2024-01-27T14:24:03;14.60;57.20
3406;DHT22;10008;48.682;9.016;2024-01-27T14:26:31;14.60;58.30
3406;DHT22;10008;48.682;9.016;2024-01-27T14:28:57;14.40;57.40
3406;DHT22;10008;48.682;9.016;2024-01-27T14:31:23;14.40;59.40
3406;DHT22;10008;48.682;9.016;2024-01-27T14:33:49;14.00;58.40
3406;DHT22;10008;48.682;9.016;2024-01-27T14:36:15;13.20;59.80
3406;DHT22;10008;48.682;9.016;2024-01-27T14:38:41;12.20;62.80
3406;DHT22;10008;48.682;9.016;2024-01-27T14:41:08;11.60;66.10
3406;DHT22;10008;48.682;9.016;2024-01-27T14:43:33;11.00;69.70
3406;DHT22;10008;48.682;9.016;2024-01-27T14:45:59;10.50;70.30
3406;DHT22;10008;48.682;9.016;2024-01-27T14:48:25;10.10;72.00
3406;DHT22;10008;48.682;9.016;2024-01-27T14:50:51;9.80;74.10
3406;DHT22;10008;48.682;9.016;2024-01-27T14:53:27;9.50;76.40
3406;DHT22;10008;48.682;9.016;2024-01-27T14:55:54;9.20;78.10
3406;DHT22;10008;48.682;9.016;2024-01-27T14:58:23;9.00;80.20
3406;DHT22;10008;48.682;9.016;2024-01-27T15:00:49;8.90;81.20
3406;DHT22;10008;48.682;9.016;2024-01-27T15:03:21;8.70;82.20
3406;DHT22;10008;48.682;9.016;2024-01-27T15:05:48;8.80;82.90
3406;DHT22;10008;48.682;9.016;2024-01-27T15:08:15;9.20;82.80
3406;DHT22;10008;48.682;9.016;2024-01-27T15:10:41;9.30;81.40
3406;DHT22;10008;48.682;9.016;2024-01-27T15:13:09;9.10;81.90
3406;DHT22;10008;48.682;9.016;2024-01-27T15:15:36;8.80;82.90
3406;DHT22;10008;48.682;9.016;2024-01-27T15:18:03;8.60;84.80
3406;DHT22;10008;48.682;9.016;2024-01-27T15:20:29;8.40;86.00
3406;DHT22;10008;48.682;9.016;2024-01-27T15:22:55;8.20;87.80
3406;DHT22;10008;48.682;9.016;2024-01-27T15:25:21;8.00;89.30
3406;DHT22;10008;48.682;9.016;2024-01-27T15:27:47;7.90;90.40
3406;DHT22;10008;48.682;9.016;2024-01-27T15:30:13;7.70;90.90
3406;DHT22;10008;48.682;9.016;2024-01-27T15:32:39;7.60;91.70
3406;DHT22;10008;48.682;9.016;2024-01-27T15:35:06;7.50;92.70
3406;DHT22;10008;48.682;9.016;2024-01-27T15:37:32;7.40;93.40
3406;DHT22;10008;48.682;9.016;2024-01-27T15:39:58;7.20;94.00
3406;DHT22;10008;48.682;9.016;2024-01-27T15:42:23;7.10;94.90
3406;DHT22;10008;48.682;9.016;2024-01-27T15:44:49;7.00;95.60
3406;DHT22;10008;48.682;9.016;2024-01-27T15:47:15;7.00;96.30
3406;DHT22;10008;48.682;9.016;2024-01-27T15:49:40;6.90;96.90